Impacts TAF Board
For situational awareness. Not to be used for flight planning purposes.
IDs:

KPUW - Pullman/Moscow Rgnl, WA, US

Issued at 1723 UTC 08 Aug 2020
Updated at 2153 UTC 08 Aug 2020
Potential Impact None Slight Moderate High
Time2053Z 08/22Z 08/23Z 09/00Z 09/01Z 09/02Z 09/03Z 09/04Z 09/05Z 09/06Z 09/07Z 09/08Z 09/09Z 09/10Z>>
Type OBS PRVL PRVL PRVL PRVL PRVL PRVL PRVL PRVL PRVL PRVL PRVL PRVL PRVL
VIS 10 >6 >6 >6 >6 >6 >6 >6 >6 >6 >6 >6 >6 >6
CIG -- -- -- -- -- -- -- -- -- -- -- -- -- --
Cover FEW SCT SCT SCT SCT FEW FEW SKC SKC SKC SKC SKC SKC SKC
FltCat VFR VFR VFR VFR VFR VFR VFR VFR VFR VFR VFR VFR VFR VFR
WX -- -- -- -- -- -- -- -- -- -- -- -- -- --
WDir 240 260 260 260 260 260 260 VRB VRB VRB VRB VRB VRB VRB
WSpd 10 10 10 10 10 6 6 3 3 3 3 3 3 3
WGst 20 17 17 17 17 -- -- -- -- -- -- -- -- --
Raw TAF
KPUW 081723Z 0818/0918 24009KT P6SM SCT110 BKN200
  FM082200 26010G17KT P6SM FEW100 SCT250
  FM090200 26006KT P6SM FEW250
  FM090400 VRB03KT P6SM SKC
  FM091500 25006KT P6SM SKC


Raw METAR
KPUW 082053Z AUTO 24010G20KT 10SM FEW075 24/06 A3008 RMK AO2 SLP180 T02440061 58012
KPUW 081953Z AUTO 24008KT 10SM CLR 24/06 A3010 RMK AO2 SLP186 T02390061
KPUW 081853Z AUTO 10SM FEW100 23/06 A3011 RMK AO2 SLP188 T02280061

METAR Board
Radar Display
Forecast Discussion
For situational awareness. Not to be used for flight planning purposes.